Tropical Cyclones
[Index]
Main Index Home Page Stock Weather Photos Extreme Storms Discussion Storm News and Storm Chasing Reports Tropical Cyclones / Hurricanes / Typhoons Weather Data and Links Wild Fires / Bushfires Weather Observation Techniques Weather Picture Catalogue Tornado Pictures and Reports Stock Video Footage and DVDs for sale
Season 2010-2011 Tropical Cyclone BINGIZA Track Map
Season 2010-2011 Summaries (Operational Data): [AU] [SIO] [SPAC] [SH]
<<- Previous TC | 2010-2011 Season | Next TC ->>

click for intensity scale information  Lat/long Grid: Show Hide

 Date Labels: Show Hide

Operational Tropical Cyclone Data : JTWC Advisories

Name: BINGIZA
Number: 1113

09 Feb 2011 06:00 UTC to 02 Mar 2011 00:00 UTC

    date/time    lat    long     hPa   cat  kts
2011-02-09 06   13.6    55.8    1001         25          
2011-02-09 12   13.8    55.1     998         30          
2011-02-09 18   13.7    54.6     996    1    35          
2011-02-10 00   13.5    54.2     991    1    40          
2011-02-10 06   13.6    54.5     991    1    40          
2011-02-10 12   13.8    54.2     991    1    40          
2011-02-10 18   13.8    54.1     990    1    40          
2011-02-11 00   13.9    53.7     992    1    40          
2011-02-11 06   14.3    53.7     993    1    40          
2011-02-11 12   14.7    53.7     993    1    40          
2011-02-11 18   14.9    54.0     991    1    40          
2011-02-12 00   15.3    54.0     993    1    40          
2011-02-12 06   15.7    53.5     986    2    50          
2011-02-12 12   15.4    53.6     982    2    55          
2011-02-12 18   15.6    53.5     963    3    80          
2011-02-13 00   15.6    53.1     953    4    90          
2011-02-13 06   15.7    52.6     953    4    90          
2011-02-13 12   15.8    52.0     953    4    90          
2011-02-13 18   16.0    51.5     958    3    85          
2011-02-14 00   16.0    50.5     959    3    85          
2011-02-14 06   15.9    49.8     953    3    80          
2011-02-14 12   15.8    48.6     975    2    50          
2011-02-14 18   16.2    47.2     990    1    35          
2011-02-15 00   16.4    45.6     997         25          
2011-02-15 06   16.5    45.7     995         20          
2011-02-15 12   16.8    44.9     996         20          
2011-02-15 18   16.9    44.2     995         20          
2011-02-16 00   17.7    43.3     997         25          
2011-02-16 06   16.7    44.1     994         30          
2011-02-16 12   18.7    44.1     995         25          
2011-02-16 18   19.7    43.8     995         25          
2011-02-17 00   20.7    43.7     993         30          
2011-02-17 06   20.9    44.0     990    1    40          
2011-02-17 12   20.9    43.9     990    1    40          
2011-02-17 18   20.8    44.4     992         30          
2011-02-18 00   21.5    45.2     996         25          
2011-02-18 06   22.1    46.2     994         25          
2011-02-18 12   24.0    47.3     994         25          
2011-02-18 18   22.8    49.2     996                     
2011-02-19 00   24.8    48.0     996                     
2011-02-19 06   25.0    47.7     997                     
2011-02-19 12   25.1    47.4     997                     
2011-02-19 18   25.3    47.1    1000                     
2011-02-20 00   25.9    47.5    1001                     
2011-02-20 06   26.8    46.5    1003                     
2011-02-20 12   27.4    47.3    1003                     
2011-02-20 18   27.7    46.0    1003                     
2011-02-21 00   27.8    47.0    1002                     
2011-02-21 06   28.6    47.2    1003                     
2011-02-21 12   29.2    47.6    1001                     
2011-02-21 18   29.9    48.8    1001                     
2011-02-22 00   30.7    49.9     999                     
2011-02-22 06   32.4    52.3     999                     
2011-02-22 12   32.5    53.5     998                     
2011-02-22 18   33.7    56.1     998                     
2011-02-23 00   35.0    57.7     996                     
2011-02-23 06   36.1    60.2     998                     
2011-02-23 18   37.4    64.8     998                     
2011-02-24 00   37.6    65.1     996                     
2011-02-24 06   39.3    66.5     998                     
2011-02-24 12   40.1    65.3     998                     
2011-02-24 18   40.2    65.0     998                     
2011-02-25 00   40.2    64.6    1000                     
2011-02-25 06   40.0    65.0    1003                     
2011-02-25 12   40.2    65.8    1005                     
2011-02-25 18   40.4    67.5    1006                     
2011-02-26 00   41.0    69.8    1006                     
2011-02-26 06   40.9    70.8    1007                     
2011-02-26 12   41.0    72.4    1007                     
2011-02-26 18   41.3    74.2    1009                     
2011-02-27 00   41.4    75.1    1009                     
2011-02-27 06   40.3    77.2    1010                     
2011-02-27 12   40.5    77.5    1011                     
2011-02-27 18   40.2    78.3    1012                     
2011-02-28 00   40.0    79.5    1011                     
2011-02-28 06   40.0    80.0    1010                     
2011-02-28 12   40.1    80.1    1010                     
2011-02-28 18   40.1    80.5    1012                     
2011-03-01 00   40.0    80.8    1011                     
2011-03-01 06   39.2    82.1    1011                     
2011-03-01 12   39.0    82.8    1011                     
2011-03-01 18   39.1    83.5    1012                     
2011-03-02 00   38.1    85.6    1012                     
Winds are 10-min average.

Tropical cyclone tracks developed by Michael Bath using operational warnings and advisories and Google Maps.


[Australian Severe Weather index] [Copyright Notice] [Email Contacts] [Search This Site] [Privacy Policy]
Document: tropical_cyclone_bingiza.htm Updated: 28 May 2013